PALG Airport (Kalskag) Information

FAA: KLG - ICAO: PALG

PALG Airport Location

State Alaska
County Bethel
City Kalskag
PALG Airport is 1 miles west of Kalskag, AK.
Latitude 61-32-09.5000N
Longitude 160-20-44.1000W
Elevation 63ft

PALG Airport METARs

METAR PALG 180556Z AUTO 00000KT 10SM CLR M02/M06 A2961 RMK AO2 SLP031 T10221056 10011 21022 51034 FZRANO
Altimeter 29.61"
Temperature -2.2°C (28.0°F)
Wind 0° at 0KT
Clouds Skies are clear.
Visibility 10.0mi
Time observed: 2021-10-18T05:56:00Z

PALG Airport Details

Status Operational
Activation October 1959
Ownership Public
Usage Public
Chart MC GRATH
ATC on-site No
Beacon schedule N/A
Beacon color clear green

PALG Airport Contacts

Owner ALASKA DOT&PF CENTRAL REGION
Owner address PO BOX 196900, ANCHORAGE, AK 99519-6900
Owner phone (907) 269-0749
Manager JASON LANGE/SEAN MONTGOMERY
Manager address STATE OF AK - DOTPF, 35200 HOPE HWY, HOPE, AK 99605
Manager phone 907-288-2428

PALG Airport (Kalskag) Radio Frequencies

PALG (Airport) Radio Frequencies

UNICOM 122.8
Common traffic advisory frequency (CTAF) 122.8